Ashton, Kansas
Current Conditions -  °F | °C
As of 11:47 AM on Monday 22 Dec 2014 (Local Time) from KWLD Reporting Station
Haze Haze  
Wind Chill: 42°   Ceiling: 1700
Heat Index: 48°   Visibility: 6mi
Dew Point: 47°   Wind: 14mph
Humidity: 96%   Direction: 290°WNW
Pressure: 29.56"   Gusts: NA
Location:  37.0641°N, 97.2025°W
Report Text: KWLD 221747Z AUTO 29012KT 6SM BR SCT010 BKN017 BKN022 09/08 A2956 RMK AO2 T00890083
Loading
Personal Weather Stations






























Interactive Weather Map New forecast layout! Learn more

10-Day Weather Forecast

Advertisements
Track Severe Weather on mobile